createdAt,value
2023-04-15T00:01:02.498Z,100095.19
2023-04-15T00:03:30.037Z,100091.72
2023-04-15T00:05:58.347Z,100084.47
2023-04-15T00:08:25.495Z,100083.41
2023-04-15T00:10:53.227Z,100082.06
2023-04-15T00:13:20.325Z,100082.59
2023-04-15T00:15:48.035Z,100078.31
2023-04-15T00:18:15.008Z,100072.41
2023-04-15T00:20:42.339Z,100074.84
2023-04-15T00:23:09.392Z,100073.72
2023-04-15T00:25:36.588Z,100079.63
2023-04-15T00:28:03.847Z,100079.34
2023-04-15T00:30:31.513Z,100082.84
2023-04-15T00:32:58.746Z,100079.34
2023-04-15T00:35:25.854Z,100075.56
2023-04-15T00:37:53.024Z,100080.97
2023-04-15T00:40:22.223Z,100074.00
2023-04-15T00:42:49.815Z,100072.38
2023-04-15T00:45:16.919Z,100076.66
2023-04-15T00:47:45.148Z,100074.78
2023-04-15T00:50:14.077Z,100068.59
2023-04-15T00:52:41.841Z,100062.19
2023-04-15T00:55:09.710Z,100063.78
2023-04-15T00:57:37.272Z,100060.59
2023-04-15T01:00:07.969Z,100074.78
2023-04-15T01:02:36.652Z,100069.72
2023-04-15T01:05:05.012Z,100059.28
2023-04-15T01:07:32.892Z,100061.16
2023-04-15T01:10:00.323Z,100063.06
2023-04-15T01:12:28.284Z,100058.22
2023-04-15T01:14:56.628Z,100054.97
2023-04-15T01:17:25.180Z,100062.75
2023-04-15T01:19:53.002Z,100050.44
2023-04-15T01:22:20.386Z,100059.81
2023-04-15T01:24:56.890Z,100054.47
2023-04-15T01:27:23.975Z,100056.59
2023-04-15T01:29:51.055Z,100047.44
2023-04-15T01:32:18.252Z,100053.03
2023-04-15T01:34:45.116Z,100054.63
2023-04-15T01:37:12.487Z,100057.28
2023-04-15T01:39:39.563Z,100050.63
2023-04-15T01:42:07.054Z,100053.59
2023-04-15T01:44:33.939Z,100051.47
2023-04-15T01:47:01.280Z,100051.47
2023-04-15T01:49:28.362Z,100053.63
2023-04-15T01:51:55.945Z,100048.81
2023-04-15T01:54:22.880Z,100047.22
2023-04-15T01:56:52.048Z,100051.00
2023-04-15T01:59:19.205Z,100047.75
2023-04-15T02:01:46.677Z,100050.72
2023-04-15T02:04:16.605Z,100037.31
2023-04-15T02:06:44.305Z,100049.13
2023-04-15T02:09:12.427Z,100042.97
2023-04-15T02:11:39.493Z,100045.38
2023-04-15T02:14:06.815Z,100045.38
2023-04-15T02:16:34.278Z,100044.31
2023-04-15T02:19:02.214Z,100043.50
2023-04-15T02:21:30.969Z,100047.25
2023-04-15T02:23:57.830Z,100048.31
2023-04-15T02:26:25.539Z,100044.03
2023-04-15T02:28:55.407Z,100055.28
2023-04-15T02:31:22.365Z,100048.06
2023-04-15T02:33:49.586Z,100049.41
2023-04-15T02:36:16.611Z,100048.59
2023-04-15T02:38:44.343Z,100040.31
2023-04-15T02:41:12.842Z,100040.81
2023-04-15T02:43:40.216Z,100040.31
2023-04-15T02:46:13.016Z,100040.56
2023-04-15T02:48:40.985Z,100053.44
2023-04-15T02:51:19.926Z,100048.63
2023-04-15T02:53:48.600Z,100048.34
2023-04-15T02:56:17.375Z,100051.59
2023-04-15T02:58:45.630Z,100046.75
2023-04-15T03:01:13.580Z,100059.63
2023-04-15T03:03:41.573Z,100058.56
2023-04-15T03:06:09.025Z,100050.53
2023-04-15T03:08:36.989Z,100050.53
2023-04-15T03:11:04.979Z,100054.31
2023-04-15T03:13:33.233Z,100054.31
2023-04-15T03:16:06.135Z,100054.56
2023-04-15T03:18:33.356Z,100058.06
2023-04-15T03:21:02.902Z,100056.44
2023-04-15T03:23:32.741Z,100052.69
2023-04-15T03:26:03.413Z,100057.53
2023-04-15T03:28:32.858Z,100056.22
2023-04-15T03:31:01.034Z,100058.91
2023-04-15T03:33:28.402Z,100059.72
2023-04-15T03:35:55.670Z,100057.56
2023-04-15T03:38:22.559Z,100060.00
2023-04-15T03:40:49.601Z,100062.44
2023-04-15T03:43:16.808Z,100050.16
2023-04-15T03:45:43.878Z,100042.91
2023-04-15T03:48:17.930Z,100051.50
2023-04-15T03:50:46.204Z,100049.88
2023-04-15T03:53:13.196Z,100052.56
2023-04-15T03:55:40.271Z,100048.53
2023-04-15T03:58:07.502Z,100066.78
2023-04-15T04:00:34.409Z,100065.97
2023-04-15T04:03:01.750Z,100065.72
2023-04-15T04:05:29.076Z,100056.59
2023-04-15T04:07:56.060Z,100072.16
2023-04-15T04:10:23.173Z,100058.22
2023-04-15T04:12:50.275Z,100076.97
2023-04-15T04:15:17.379Z,100053.66
2023-04-15T04:17:44.538Z,100070.00
2023-04-15T04:20:12.327Z,100079.13
2023-04-15T04:22:41.322Z,100055.81
2023-04-15T04:25:13.150Z,100069.78
2023-04-15T04:27:40.441Z,100068.16
2023-04-15T04:30:08.442Z,100067.66
2023-04-15T04:32:35.293Z,100063.38
2023-04-15T04:35:02.437Z,100066.59
2023-04-15T04:37:29.418Z,100077.59
2023-04-15T04:39:56.591Z,100070.63
2023-04-15T04:42:23.581Z,100064.47
2023-04-15T04:44:50.575Z,100066.91
2023-04-15T04:47:17.532Z,100073.59
2023-04-15T04:49:44.572Z,100074.41
2023-04-15T04:52:11.728Z,100080.88
2023-04-15T04:54:38.742Z,100077.91
2023-04-15T04:57:07.913Z,100082.78
2023-04-15T04:59:34.799Z,100083.06
2023-04-15T05:02:02.015Z,100084.13
2023-04-15T05:04:29.138Z,100091.91
2023-04-15T05:06:56.602Z,100098.09
2023-04-15T05:09:23.595Z,100100.22
2023-04-15T05:11:50.694Z,100094.59
2023-04-15T05:14:17.879Z,100093.00
2023-04-15T05:16:45.236Z,100104.00
2023-04-15T05:19:12.188Z,100097.03
2023-04-15T05:21:39.621Z,100101.31
2023-04-15T05:24:07.099Z,100102.94
2023-04-15T05:26:34.263Z,100110.72
2023-04-15T05:29:01.681Z,100109.41
2023-04-15T05:31:29.032Z,100104.56
2023-04-15T05:33:55.979Z,100110.47
2023-04-15T05:36:22.892Z,100103.50
2023-04-15T05:38:49.775Z,100111.84
2023-04-15T05:41:19.597Z,100113.47
2023-04-15T05:43:47.097Z,100108.66
2023-04-15T05:46:14.325Z,100104.38
2023-04-15T05:48:41.661Z,100107.63
2023-04-15T05:51:08.726Z,100104.16
2023-04-15T05:53:35.917Z,100109.78
2023-04-15T05:56:02.895Z,100108.75
2023-04-15T05:58:29.758Z,100113.91
2023-04-15T06:00:56.959Z,100112.03
2023-04-15T06:03:23.974Z,100113.38
2023-04-15T06:05:50.939Z,100113.41
2023-04-15T06:08:18.880Z,100114.50
2023-04-15T06:10:46.159Z,100099.47
2023-04-15T06:13:13.337Z,100109.69
2023-04-15T06:15:40.558Z,100112.66
2023-04-15T06:18:07.745Z,100103.25
2023-04-15T06:20:34.689Z,100103.28
2023-04-15T06:23:01.645Z,100110.81
2023-04-15T06:25:28.572Z,100118.09
2023-04-15T06:27:55.397Z,100122.13
2023-04-15T06:30:24.401Z,100112.19
2023-04-15T06:32:51.618Z,100117.03
2023-04-15T06:35:18.982Z,100119.47
2023-04-15T06:37:46.250Z,100125.94
2023-04-15T06:40:13.698Z,100125.69
2023-04-15T06:42:40.582Z,100143.16
2023-04-15T06:45:08.684Z,100133.47
2023-04-15T06:47:35.680Z,100131.59
2023-04-15T06:50:03.930Z,100140.19
2023-04-15T06:52:31.470Z,100141.25
2023-04-15T06:54:59.535Z,100145.53
2023-04-15T06:57:26.721Z,100133.72
2023-04-15T06:59:54.545Z,100143.09
2023-04-15T07:02:21.965Z,100150.09
2023-04-15T07:04:48.953Z,100144.47
2023-04-15T07:07:17.593Z,100153.09
2023-04-15T07:09:44.910Z,100154.97
2023-04-15T07:12:12.956Z,100165.19
2023-04-15T07:14:39.933Z,100157.09
2023-04-15T07:17:07.620Z,100166.78
2023-04-15T07:19:34.971Z,100164.34
2023-04-15T07:22:02.267Z,100174.28
2023-04-15T07:24:29.490Z,100169.19
2023-04-15T07:26:59.458Z,100169.19
2023-04-15T07:29:27.812Z,100171.88
2023-04-15T07:31:56.953Z,100175.38
2023-04-15T07:34:24.575Z,100172.94
2023-04-15T07:36:52.095Z,100182.63
2023-04-15T07:39:19.387Z,100182.91
2023-04-15T07:41:46.604Z,100188.28
2023-04-15T07:44:13.588Z,100181.56
2023-04-15T07:46:41.133Z,100178.34
2023-04-15T07:49:08.031Z,100180.78
2023-04-15T07:51:35.233Z,100177.81
2023-04-15T07:54:03.457Z,100182.13
2023-04-15T07:56:31.066Z,100182.16
2023-04-15T07:58:58.441Z,100180.78
2023-04-15T08:01:25.790Z,100174.31
2023-04-15T08:03:53.182Z,100187.75
2023-04-15T08:06:20.244Z,100192.56
2023-04-15T08:08:47.870Z,100190.16
2023-04-15T08:11:15.089Z,100196.59
2023-04-15T08:13:42.013Z,100199.31
2023-04-15T08:16:20.919Z,100207.38
2023-04-15T08:18:49.911Z,100209.53
2023-04-15T08:21:18.634Z,100203.59
2023-04-15T08:23:47.607Z,100202.00
2023-04-15T08:26:14.806Z,100213.03
2023-04-15T08:28:42.853Z,100214.09
2023-04-15T08:31:10.155Z,100211.13
2023-04-15T08:33:37.060Z,100219.75
2023-04-15T08:36:04.594Z,100214.09
2023-04-15T08:38:31.742Z,100225.94
2023-04-15T08:41:05.008Z,100220.00
2023-04-15T08:43:36.161Z,100227.81
2023-04-15T08:46:05.565Z,100231.31
2023-04-15T08:48:40.376Z,100222.16
2023-04-15T08:51:08.367Z,100227.88
2023-04-15T08:53:35.690Z,100228.41
2023-04-15T08:56:07.722Z,100227.88
2023-04-15T08:58:36.982Z,100221.13
2023-04-15T09:01:04.136Z,100217.38
2023-04-15T09:03:32.188Z,100222.22
2023-04-15T09:06:00.136Z,100225.41
2023-04-15T09:08:27.155Z,100220.31
2023-04-15T09:10:54.982Z,100226.22
2023-04-15T09:13:22.140Z,100230.22
2023-04-15T09:15:50.365Z,100225.91
2023-04-15T09:18:32.733Z,100229.41
2023-04-15T09:21:08.887Z,100226.69
2023-04-15T09:23:37.250Z,100233.13
2023-04-15T09:26:06.404Z,100240.13
2023-04-15T09:28:36.038Z,100240.66
2023-04-15T09:31:02.921Z,100236.06
2023-04-15T09:33:30.429Z,100245.75
2023-04-15T09:36:03.441Z,100248.97
2023-04-15T09:38:31.231Z,100247.38
2023-04-15T09:40:59.521Z,100257.06
2023-04-15T09:43:40.860Z,100254.13
2023-04-15T09:46:08.267Z,100252.22
2023-04-15T09:48:35.379Z,100258.97
2023-04-15T09:51:02.605Z,100266.78
2023-04-15T09:53:31.619Z,100264.34
2023-04-15T09:56:03.573Z,100258.69
2023-04-15T09:58:33.817Z,100270.28
2023-04-15T10:01:04.346Z,100268.97
2023-04-15T10:03:37.401Z,100261.16
2023-04-15T10:06:07.883Z,100267.91
2023-04-15T10:08:35.266Z,100276.53
2023-04-15T10:11:03.480Z,100269.53
2023-04-15T10:13:37.384Z,100269.28
2023-04-15T10:16:12.602Z,100288.91
2023-04-15T10:18:45.876Z,100290.00
2023-04-15T10:21:18.605Z,100286.75
2023-04-15T10:23:46.768Z,100289.47
2023-04-15T10:26:14.902Z,100285.16
2023-04-15T10:28:42.406Z,100291.06
2023-04-15T10:31:13.729Z,100288.09
2023-04-15T10:33:42.962Z,100284.34
2023-04-15T10:36:10.617Z,100288.09
2023-04-15T10:38:43.258Z,100290.78
2023-04-15T10:41:27.828Z,100292.38
2023-04-15T10:44:04.444Z,100290.22
2023-04-15T10:46:41.492Z,100276.25
2023-04-15T10:49:17.448Z,100298.56
2023-04-15T10:51:53.438Z,100288.88
2023-04-15T10:54:40.856Z,100298.03
2023-04-15T10:57:15.027Z,100298.56
2023-04-15T11:00:05.023Z,100300.72
2023-04-15T11:02:48.472Z,100309.34
2023-04-15T11:05:18.214Z,100313.91
2023-04-15T11:07:52.273Z,100313.13
2023-04-15T11:10:31.374Z,100314.19
2023-04-15T11:13:04.139Z,100309.63
2023-04-15T11:15:40.964Z,100312.84
2023-04-15T11:18:16.919Z,100323.34
2023-04-15T11:21:06.174Z,100324.97
2023-04-15T11:23:35.778Z,100321.47
2023-04-15T11:26:10.201Z,100334.66
2023-04-15T11:28:39.965Z,100332.25
2023-04-15T11:31:18.100Z,100333.56
2023-04-15T11:33:54.570Z,100340.03
2023-04-15T11:36:24.507Z,100332.50
2023-04-15T11:38:51.456Z,100337.34
2023-04-15T11:41:24.782Z,100342.19
2023-04-15T11:43:52.975Z,100347.56
2023-04-15T11:46:22.074Z,100340.84
2023-04-15T11:48:49.239Z,100356.47
2023-04-15T11:51:16.892Z,100352.16
2023-04-15T11:53:49.434Z,100357.28
2023-04-15T11:56:21.937Z,100358.63
2023-04-15T11:58:53.270Z,100362.13
2023-04-15T12:01:20.263Z,100367.50
2023-04-15T12:03:49.215Z,100363.19
2023-04-15T12:06:24.350Z,100362.38
2023-04-15T12:09:04.695Z,100370.72
2023-04-15T12:11:53.888Z,100371.81
2023-04-15T12:14:33.845Z,100360.78
2023-04-15T12:17:03.680Z,100363.72
2023-04-15T12:19:35.975Z,100367.22
2023-04-15T12:22:10.196Z,100369.09
2023-04-15T12:24:38.682Z,100372.06
2023-04-15T12:27:13.679Z,100380.66
2023-04-15T12:29:43.176Z,100380.13
2023-04-15T12:32:17.424Z,100379.84
2023-04-15T12:34:53.289Z,100379.84
2023-04-15T12:37:20.992Z,100384.69
2023-04-15T12:39:49.902Z,100387.38
2023-04-15T12:42:18.466Z,100383.06
2023-04-15T12:44:46.204Z,100387.91
2023-04-15T12:47:13.997Z,100385.44
2023-04-15T12:49:41.405Z,100392.44
2023-04-15T12:52:08.849Z,100384.03
2023-04-15T12:54:36.553Z,100390.19
2023-04-15T12:57:06.816Z,100405.28
2023-04-15T12:59:35.859Z,100398.53
2023-04-15T13:02:04.448Z,100410.09
2023-04-15T13:04:31.867Z,100397.13
2023-04-15T13:06:59.233Z,100415.75
2023-04-15T13:09:26.364Z,100399.25
2023-04-15T13:11:54.418Z,100402.19
2023-04-15T13:14:21.620Z,100407.53
2023-04-15T13:16:48.659Z,100410.75
2023-04-15T13:19:15.789Z,100409.38
2023-04-15T13:21:42.656Z,100407.72
2023-04-15T13:24:10.004Z,100420.16
2023-04-15T13:26:37.796Z,100416.63
2023-04-15T13:29:05.009Z,100418.22
2023-04-15T13:31:32.035Z,100415.81
2023-04-15T13:33:59.123Z,100415.00
2023-04-15T13:36:27.480Z,100410.69
2023-04-15T13:38:55.140Z,100422.53
2023-04-15T13:41:22.238Z,100419.34
2023-04-15T13:43:49.180Z,100428.47
2023-04-15T13:46:16.772Z,100418.22
2023-04-15T13:48:43.710Z,100426.84
2023-04-15T13:51:11.122Z,100430.38
2023-04-15T13:53:39.598Z,100431.75
2023-04-15T13:56:10.770Z,100434.47
2023-04-15T13:58:38.309Z,100446.34
2023-04-15T14:01:07.311Z,100455.56
2023-04-15T14:03:36.820Z,100447.75
2023-04-15T14:06:06.071Z,100455.59
2023-04-15T14:08:33.410Z,100448.06
2023-04-15T14:11:00.712Z,100459.16
2023-04-15T14:13:27.841Z,100455.13
2023-04-15T14:15:55.075Z,100462.16
2023-04-15T14:18:22.171Z,100468.09
2023-04-15T14:20:49.263Z,100471.34
2023-04-15T14:23:16.251Z,100474.06
2023-04-15T14:25:43.602Z,100481.63
2023-04-15T14:28:12.036Z,100480.28
2023-04-15T14:30:39.122Z,100481.91
2023-04-15T14:33:06.168Z,100486.22
2023-04-15T14:35:33.277Z,100483.81
2023-04-15T14:38:00.329Z,100490.84
2023-04-15T14:40:27.335Z,100495.41
2023-04-15T14:42:54.212Z,100498.13
2023-04-15T14:45:21.357Z,100506.22
2023-04-15T14:47:48.529Z,100508.38
2023-04-15T14:50:15.862Z,100506.47
2023-04-15T14:52:42.869Z,100507.00
2023-04-15T14:55:11.979Z,100505.38
2023-04-15T14:57:40.814Z,100508.63
2023-04-15T15:00:09.803Z,100505.63
2023-04-15T15:02:40.330Z,100513.44
2023-04-15T15:05:09.666Z,100522.06
2023-04-15T15:07:38.056Z,100522.59
2023-04-15T15:10:06.059Z,100527.47
2023-04-15T15:12:33.821Z,100535.03
2023-04-15T15:15:02.999Z,100531.25
2023-04-15T15:17:33.028Z,100527.22
2023-04-15T15:20:00.546Z,100545.81
2023-04-15T15:22:27.663Z,100540.16
2023-04-15T15:24:54.653Z,100540.72
2023-04-15T15:27:21.610Z,100541.00
2023-04-15T15:29:48.990Z,100533.97
2023-04-15T15:32:16.210Z,100542.31
2023-04-15T15:34:43.183Z,100538.28
2023-04-15T15:37:10.576Z,100542.88
2023-04-15T15:39:37.685Z,100539.09
2023-04-15T15:42:06.790Z,100543.94
2023-04-15T15:44:34.623Z,100542.06
2023-04-15T15:47:02.026Z,100542.06
2023-04-15T15:49:29.229Z,100558.75
2023-04-15T15:51:56.936Z,100548.25
2023-04-15T15:54:24.954Z,100552.28
2023-04-15T15:56:51.879Z,100562.53
2023-04-15T15:59:18.984Z,100552.03
2023-04-15T16:01:46.322Z,100564.16
2023-04-15T16:04:13.549Z,100571.97
2023-04-15T16:06:41.133Z,100574.94
2023-04-15T16:09:08.433Z,100568.47
2023-04-15T16:11:35.299Z,100574.94
2023-04-15T16:14:02.373Z,100578.69
2023-04-15T16:16:29.989Z,100579.47
2023-04-15T16:19:00.003Z,100583.25
2023-04-15T16:21:27.312Z,100587.28
2023-04-15T16:23:54.467Z,100586.44
2023-04-15T16:26:21.806Z,100579.69
2023-04-15T16:28:48.916Z,100590.22
2023-04-15T16:31:15.909Z,100595.06
2023-04-15T16:33:43.012Z,100598.53
2023-04-15T16:36:10.032Z,100596.38
2023-04-15T16:38:37.291Z,100596.91
2023-04-15T16:41:04.320Z,100604.16
2023-04-15T16:43:31.314Z,100604.69
2023-04-15T16:45:58.264Z,100601.72
2023-04-15T16:48:25.970Z,100605.75
2023-04-15T16:50:52.915Z,100611.13
2023-04-15T16:53:20.027Z,100602.25
2023-04-15T16:55:47.009Z,100615.69
2023-04-15T16:58:13.901Z,100610.31
2023-04-15T17:00:40.868Z,100618.09
2023-04-15T17:03:08.067Z,100616.19
2023-04-15T17:05:35.278Z,100617.53
2023-04-15T17:08:02.221Z,100629.09
2023-04-15T17:10:29.194Z,100636.38
2023-04-15T17:12:57.929Z,100625.31
2023-04-15T17:15:26.008Z,100634.22
2023-04-15T17:17:53.626Z,100635.28
2023-04-15T17:20:20.791Z,100626.38
2023-04-15T17:22:48.902Z,100644.13
2023-04-15T17:25:16.156Z,100650.59
2023-04-15T17:27:43.288Z,100643.59
2023-04-15T17:30:10.781Z,100650.59
2023-04-15T17:32:40.360Z,100659.19
2023-04-15T17:35:08.091Z,100658.91
2023-04-15T17:37:35.775Z,100664.81
2023-04-15T17:40:03.470Z,100658.34
2023-04-15T17:42:30.671Z,100674.25
2023-04-15T17:44:57.744Z,100673.94
2023-04-15T17:47:24.759Z,100672.34
2023-04-15T17:49:51.776Z,100673.66
2023-04-15T17:52:18.796Z,100673.38
2023-04-15T17:54:46.860Z,100672.03
2023-04-15T17:57:13.865Z,100678.50
2023-04-15T17:59:43.991Z,100688.69
2023-04-15T18:02:11.642Z,100681.88
2023-04-15T18:04:39.806Z,100693.44
2023-04-15T18:07:07.047Z,100687.75
2023-04-15T18:09:34.049Z,100700.16
2023-04-15T18:12:02.206Z,100709.00
2023-04-15T18:14:34.568Z,100716.25
2023-04-15T18:17:03.202Z,100711.66
2023-04-15T18:19:30.907Z,100716.78
2023-04-15T18:22:00.446Z,100721.31
2023-04-15T18:24:28.073Z,100721.31
2023-04-15T18:26:55.052Z,100720.19
2023-04-15T18:29:22.291Z,100725.56
2023-04-15T18:31:49.338Z,100728.78
2023-04-15T18:34:16.360Z,100728.22
2023-04-15T18:36:43.307Z,100729.84
2023-04-15T18:39:10.486Z,100742.19
2023-04-15T18:41:37.576Z,100750.75
2023-04-15T18:44:04.583Z,100750.75
2023-04-15T18:46:31.628Z,100752.06
2023-04-15T18:48:58.620Z,100749.09
2023-04-15T18:51:25.948Z,100749.34
2023-04-15T18:53:52.890Z,100747.97
2023-04-15T18:56:19.761Z,100763.31
2023-04-15T18:59:25.864Z,100772.44
2023-04-15T19:01:34.461Z,100761.38
2023-04-15T19:04:02.611Z,100768.88
2023-04-15T19:06:29.718Z,100770.75
2023-04-15T19:08:58.440Z,100774.50
2023-04-15T19:11:26.442Z,100782.84
2023-04-15T19:13:54.265Z,100779.34
2023-04-15T19:16:21.252Z,100785.53
2023-04-15T19:18:48.317Z,100784.41
2023-04-15T19:21:16.131Z,100787.34
2023-04-15T19:23:43.764Z,100797.28
2023-04-15T19:26:12.068Z,100797.53
2023-04-15T19:28:38.987Z,100799.66
2023-04-15T19:31:06.761Z,100805.84
2023-04-15T19:33:34.285Z,100790.22
2023-04-15T19:36:05.254Z,100794.00
2023-04-15T19:38:34.905Z,100799.91
2023-04-15T19:41:02.028Z,100798.00
2023-04-15T19:43:29.664Z,100810.63
2023-04-15T19:45:56.721Z,100811.63
2023-04-15T19:48:25.743Z,100819.13
2023-04-15T19:50:53.225Z,100813.66
2023-04-15T19:53:20.397Z,100817.66
2023-04-15T19:55:48.388Z,100823.53
2023-04-15T19:58:15.644Z,100819.72
2023-04-15T20:00:42.780Z,100817.03
2023-04-15T20:03:09.929Z,100825.09
2023-04-15T20:05:37.342Z,100812.41
2023-04-15T20:08:04.586Z,100823.97
2023-04-15T20:10:31.901Z,100824.53
2023-04-15T20:12:59.389Z,100824.22
2023-04-15T20:15:27.196Z,100833.66
2023-04-15T20:17:54.290Z,100816.66
2023-04-15T20:20:22.256Z,100828.53
2023-04-15T20:22:49.681Z,100828.78
2023-04-15T20:25:16.744Z,100828.28
2023-04-15T20:27:44.596Z,100838.53
2023-04-15T20:30:11.959Z,100825.84
2023-04-15T20:32:38.991Z,100836.09
2023-04-15T20:35:07.260Z,100829.91
2023-04-15T20:37:34.957Z,100838.78
2023-04-15T20:40:02.366Z,100838.78
2023-04-15T20:42:36.631Z,100839.03
2023-04-15T20:45:04.048Z,100843.34
2023-04-15T20:47:31.155Z,100841.16
2023-04-15T20:49:58.140Z,100842.78
2023-04-15T20:52:25.340Z,100839.84
2023-04-15T20:54:52.298Z,100845.53
2023-04-15T20:57:20.343Z,100844.16
2023-04-15T20:59:47.471Z,100847.97
2023-04-15T21:02:14.547Z,100856.28
2023-04-15T21:04:41.552Z,100853.34
2023-04-15T21:07:08.957Z,100856.28
2023-04-15T21:09:36.044Z,100862.97
2023-04-15T21:12:03.135Z,100857.84
2023-04-15T21:14:30.202Z,100859.09
2023-04-15T21:16:58.301Z,100856.97
2023-04-15T21:19:25.376Z,100871.22
2023-04-15T21:21:52.732Z,100863.41
2023-04-15T21:24:19.983Z,100869.84
2023-04-15T21:26:46.868Z,100881.88
2023-04-15T21:29:14.090Z,100881.56
2023-04-15T21:31:41.892Z,100882.13
2023-04-15T21:34:09.858Z,100886.44
2023-04-15T21:36:38.324Z,100885.63
2023-04-15T21:39:06.090Z,100898.25
2023-04-15T21:41:33.446Z,100895.56
2023-04-15T21:44:00.576Z,100888.81
2023-04-15T21:46:32.976Z,100902.31
2023-04-15T21:49:03.468Z,100897.44
2023-04-15T21:51:31.426Z,100899.63
2023-04-15T21:53:59.036Z,100902.06
2023-04-15T21:56:26.882Z,100909.06
2023-04-15T21:58:57.035Z,100904.19
2023-04-15T22:01:24.872Z,100910.13
2023-04-15T22:03:52.269Z,100910.38
2023-04-15T22:06:19.757Z,100910.38
2023-04-15T22:08:56.172Z,100916.25
2023-04-15T22:11:30.280Z,100907.13
2023-04-15T22:13:58.654Z,100916.81
2023-04-15T22:16:27.030Z,100923.81
2023-04-15T22:18:55.053Z,100920.56
2023-04-15T22:21:22.228Z,100915.44
2023-04-15T22:23:49.729Z,100929.41
2023-04-15T22:26:16.723Z,100930.97
2023-04-15T22:28:43.701Z,100932.34
2023-04-15T22:31:10.604Z,100925.59
2023-04-15T22:33:39.092Z,100942.28
2023-04-15T22:36:06.358Z,100941.72
2023-04-15T22:38:33.696Z,100938.69
2023-04-15T22:41:01.169Z,100938.47
2023-04-15T22:43:28.417Z,100952.47
2023-04-15T22:45:55.497Z,100941.72
2023-04-15T22:48:23.062Z,100950.84
2023-04-15T22:50:50.216Z,100951.66
2023-04-15T22:53:17.738Z,100949.78
2023-04-15T22:55:46.641Z,100955.72
2023-04-15T22:58:15.137Z,100959.72
2023-04-15T23:00:42.765Z,100963.78
2023-04-15T23:03:10.198Z,100971.34
2023-04-15T23:05:37.764Z,100958.97
2023-04-15T23:08:04.758Z,100961.91
2023-04-15T23:10:32.249Z,100964.59
2023-04-15T23:12:59.245Z,100965.16
2023-04-15T23:15:26.352Z,100971.91
2023-04-15T23:17:53.510Z,100986.16
2023-04-15T23:20:20.624Z,100971.09
2023-04-15T23:22:47.676Z,100964.91
2023-04-15T23:25:14.689Z,100965.72
2023-04-15T23:27:41.664Z,100965.97
2023-04-15T23:30:09.248Z,100978.34
2023-04-15T23:32:36.403Z,100978.59
2023-04-15T23:35:03.583Z,100980.22
2023-04-15T23:37:34.444Z,100969.72
2023-04-15T23:40:01.677Z,100989.31
2023-04-15T23:42:29.045Z,100986.88
2023-04-15T23:44:56.329Z,100989.56
2023-04-15T23:47:23.671Z,100990.63
2023-04-15T23:49:50.732Z,100995.44
2023-04-15T23:52:17.872Z,100980.03
2023-04-15T23:54:44.874Z,100982.97
2023-04-15T23:57:11.935Z,100994.06
2023-04-15T23:59:39.031Z,100979.94
